CST,Max TemperatureF,Mean TemperatureF,Min TemperatureF,Max Dew PointF,MeanDew PointF,Min DewpointF,Max Humidity, Mean Humidity, Min Humidity, Max Sea Level PressureIn, Mean Sea Level PressureIn, Min Sea Level PressureIn, Max VisibilityMiles, Mean VisibilityMiles, Min VisibilityMiles, Max Wind SpeedMPH, Mean Wind SpeedMPH, Max Gust SpeedMPH,PrecipitationIn, CloudCover, Events, WindDirDegrees
2011-12-1,62,43,24,39,30,21,93,74,32,30.37,30.31,30.23,10,9,7,6,1,,0.00,0,,42
2011-12-2,69,50,30,45,36,28,93,74,36,30.46,30.40,30.36,10,9,6,7,2,,0.00,0,,65
2011-12-3,73,52,30,51,41,28,92,68,39,30.44,30.37,30.32,10,10,8,9,3,,0.00,2,,84
2011-12-4,75,63,51,55,51,48,93,73,44,30.32,30.24,30.15,10,10,10,13,3,22,0.00,2,,103
2011-12-5,73,60,48,67,61,48,100,89,69,30.14,30.08,30.04,10,6,2,14,4,25,0.47,6,Rain,141
2011-12-6,77,67,57,68,64,57,100,89,66,30.09,30.04,29.99,10,6,0,13,2,18,0.04,7,Fog-Rain,197
2011-12-7,57,48,39,55,40,30,100,78,52,30.30,30.13,29.98,10,8,1,21,10,29,0.05,7,Rain,303
2011-12-8,54,43,30,40,32,29,93,74,45,30.36,30.29,30.24,10,9,4,8,5,17,0.00,1,,348
2011-12-9,59,44,28,40,35,26,92,72,47,30.31,30.27,30.22,10,9,7,8,2,,0.00,0,,341
2011-12-10,57,48,39,36,32,28,77,57,32,30.40,30.35,30.30,10,10,10,9,6,18,0.00,0,,3
2011-12-11,53,44,35,45,37,30,93,70,54,30.40,30.34,30.30,10,9,2,10,5,16,0.09,5,Rain,39
2011-12-12,59,52,46,50,48,44,93,85,72,30.39,30.35,30.30,10,9,2,8,5,,0.04,8,Rain,43
2011-12-13,73,60,46,56,49,45,100,84,53,30.43,30.38,30.33,10,7,2,9,5,,0.00,4,,46
2011-12-14,73,58,43,58,49,41,100,84,52,30.34,30.28,30.23,10,7,0,10,1,16,0.01,0,Fog,150
2011-12-15,75,60,46,62,54,44,100,90,62,30.27,30.21,30.16,10,4,0,10,1,,0.00,3,Fog,160
2011-12-16,75,60,46,63,54,45,100,88,53,30.24,30.20,30.16,10,4,0,8,1,,0.01,5,Fog,266
2011-12-17,62,53,43,59,48,33,94,77,48,30.38,30.28,30.21,10,10,5,13,6,18,0.01,5,Rain,348
2011-12-18,63,49,32,36,31,24,92,64,23,30.41,30.34,30.29,10,10,10,8,3,,0.00,0,,14
2011-12-19,69,50,30,58,48,27,92,75,60,30.29,30.21,30.12,10,10,4,12,3,16,0.00,4,,132
2011-12-20,71,66,62,66,62,58,93,86,73,30.14,30.07,30.01,10,9,3,10,5,23,0.06,8,Rain,136
2011-12-21,75,70,66,70,67,64,100,93,83,30.04,30.00,29.96,10,6,0,12,2,21,0.43,8,Fog-Rain,170
2011-12-22,73,68,59,69,66,57,96,92,85,30.09,30.01,29.94,10,7,0,15,5,28,0.04,7,Fog-Rain-Thunderstorm,209
2011-12-23,62,55,46,55,49,43,100,84,65,30.31,30.21,30.09,10,9,4,10,8,18,0.00,7,,360
2011-12-24,66,56,45,48,44,42,90,75,45,30.40,30.32,30.28,10,9,5,9,5,17,0.01,3,,26
2011-12-25,68,62,55,60,54,46,100,82,72,30.33,30.28,30.22,10,10,7,9,4,,0.08,8,Rain,47
2011-12-26,66,60,55,57,53,46,100,84,58,30.26,30.13,29.91,10,8,2,12,6,21,0.27,8,Rain,84
2011-12-27,63,50,36,61,48,34,100,83,58,30.18,30.00,29.91,10,8,1,18,7,25,0.52,5,Rain,267
2011-12-28,60,45,30,43,34,28,97,76,33,30.25,30.18,30.14,10,9,2,7,1,,0.00,0,,281
2011-12-29,63,48,34,54,45,32,97,84,52,30.17,30.10,30.04,10,10,8,9,1,,0.00,5,Rain,134
2011-12-30,73,60,48,58,54,46,100,89,51,30.12,30.06,30.02,10,5,0,12,3,20,0.06,4,Fog-Rain,213
2011-12-31,73,62,50,61,55,48,100,90,53,30.22,30.17,30.07,10,3,0,7,2,,0.01,4,Fog,217